Time;durP1;ratioP1;P1;durP2;ratioP2;P2;SDS_P1;SDS_P2;PMS_P1;PMS_P2;Temp;Humidity;BMP_temperature;BMP_pressure;BME280_temperature;BME280_humidity;BME280_pressure;Samples;Min_cycle;Max_cycle;Signal;HPM_P1;HPM_P2
2022/04/07 00:01:08;;;;;;;3.93;1.50;;;;;;;13.00;41.17;98309.63;4921563;29;20272;-88
2022/04/07 00:03:34;;;;;;;7.23;2.20;;;;;;;12.88;41.24;98306.97;4938636;29;20189;-87
2022/04/07 00:05:59;;;;;;;3.13;1.33;;;;;;;12.91;41.24;98306.72;4921595;29;20566;-88
2022/04/07 00:08:25;;;;;;;4.90;1.30;;;;;;;13.05;41.29;98299.59;4938524;29;20180;-89
2022/04/07 00:10:50;;;;;;;2.60;1.30;;;;;;;13.07;40.94;98297.72;4921497;29;20622;-88
2022/04/07 00:13:19;;;;;;;3.00;1.67;;;;;;;13.13;40.91;98295.44;4938714;29;20256;-88
2022/04/07 00:15:45;;;;;;;2.73;1.30;;;;;;;13.12;40.49;98292.94;4937197;29;20204;-88
2022/04/07 00:18:11;;;;;;;2.10;1.00;;;;;;;13.15;40.84;98283.03;4921262;29;20275;-88
2022/04/07 00:20:36;;;;;;;2.70;1.40;;;;;;;13.39;40.40;98277.66;4937992;29;20555;-88
2022/04/07 00:23:03;;;;;;;2.73;1.30;;;;;;;13.37;40.16;98282.19;4921241;29;20197;-88
2022/04/07 00:25:29;;;;;;;1.33;0.53;;;;;;;13.23;40.19;98264.81;4937032;29;20610;-88
2022/04/07 00:27:55;;;;;;;1.77;1.00;;;;;;;13.35;40.09;98268.31;4921265;29;20637;-88
2022/04/07 00:30:21;;;;;;;3.43;1.30;;;;;;;13.46;40.38;98276.22;4938462;29;20200;-88
2022/04/07 00:32:47;;;;;;;2.67;1.13;;;;;;;13.51;40.04;98266.16;4921144;29;20184;-89
2022/04/07 00:35:14;;;;;;;3.67;1.57;;;;;;;13.39;41.09;98265.31;4937804;29;20191;-87
2022/04/07 00:37:39;;;;;;;3.73;1.53;;;;;;;13.38;40.56;98261.03;4921075;29;20272;-88
2022/04/07 00:40:09;;;;;;;3.07;1.57;;;;;;;13.43;41.03;98266.78;4937678;29;20284;-89
2022/04/07 00:42:44;;;;;;;4.53;2.27;;;;;;;13.41;41.65;98254.69;4938003;29;20553;-89
2022/04/07 00:45:09;;;;;;;5.67;1.60;;;;;;;13.27;42.21;98254.91;4920936;29;20181;-88
2022/04/07 00:47:34;;;;;;;7.50;2.70;;;;;;;13.26;41.96;98248.81;4921690;29;20251;-88
2022/04/07 00:50:00;;;;;;;3.97;1.77;;;;;;;13.29;42.61;98250.34;4938081;29;20182;-88
2022/04/07 00:52:28;;;;;;;10.63;1.97;;;;;;;13.04;43.07;98242.66;4920775;29;20188;-89
2022/04/07 00:54:53;;;;;;;10.30;3.10;;;;;;;12.84;43.91;98238.94;4937634;29;20193;-88
2022/04/07 00:57:19;;;;;;;10.67;2.67;;;;;;;12.83;43.90;98235.47;4937999;29;20252;-87
2022/04/07 00:59:46;;;;;;;12.40;2.97;;;;;;;12.89;43.99;98227.06;4920595;29;20220;-89
2022/04/07 01:02:12;;;;;;;7.93;2.73;;;;;;;12.78;44.33;98232.34;4937373;29;20264;-88
2022/04/07 01:04:37;;;;;;;10.17;2.90;;;;;;;12.79;44.34;98218.22;4937334;29;20180;-87
2022/04/07 01:07:06;;;;;;;8.37;2.90;;;;;;;12.75;44.79;98219.41;4937253;29;20568;-89
2022/04/07 01:09:32;;;;;;;5.77;2.30;;;;;;;12.47;45.01;98222.47;4920411;29;20175;-89
2022/04/07 01:11:57;;;;;;;10.80;3.20;;;;;;;12.32;45.82;98211.28;4937171;29;20256;-89
2022/04/07 01:14:22;;;;;;;5.77;2.20;;;;;;;12.38;45.78;98215.25;4937105;29;20228;-89
2022/04/07 01:16:48;;;;;;;4.03;2.53;;;;;;;12.40;45.55;98215.97;4920281;29;20183;-89
2022/04/07 01:19:13;;;;;;;5.87;2.40;;;;;;;12.39;45.78;98209.06;4936527;29;20201;-90
2022/04/07 01:21:40;;;;;;;3.20;1.43;;;;;;;12.26;45.67;98214.34;4920229;29;20553;-88
2022/04/07 01:24:11;;;;;;;2.47;1.17;;;;;;;12.29;45.25;98222.00;4937196;29;20177;-89
2022/04/07 01:26:38;;;;;;;3.23;1.10;;;;;;;12.25;45.54;98210.06;4937176;29;20219;-89
2022/04/07 01:29:06;;;;;;;3.30;1.43;;;;;;;12.43;44.24;98221.00;4935834;29;20242;-88
2022/04/07 01:31:32;;;;;;;2.83;1.17;;;;;;;12.57;44.19;98206.81;4937004;29;20520;-88
2022/04/07 01:33:59;;;;;;;2.03;1.07;;;;;;;12.69;43.88;98198.84;4936986;29;20181;-88
2022/04/07 01:36:30;;;;;;;3.37;1.53;;;;;;;12.61;43.24;98195.97;4919935;29;20205;-88
2022/04/07 01:38:58;;;;;;;3.03;1.27;;;;;;;12.71;42.02;98188.22;4935940;29;20589;-87
2022/04/07 01:41:25;;;;;;;2.90;1.53;;;;;;;12.82;41.06;98181.19;4936647;29;20192;-89
2022/04/07 01:43:54;;;;;;;2.87;1.20;;;;;;;13.04;41.01;98182.16;4919781;29;20243;-88
2022/04/07 01:46:21;;;;;;;2.63;1.10;;;;;;;13.08;40.52;98178.34;4936559;29;20291;-89
2022/04/07 01:48:47;;;;;;;3.00;1.40;;;;;;;13.05;40.79;98170.69;4919710;29;20204;-89
2022/04/07 01:51:14;;;;;;;2.53;1.33;;;;;;;12.93;41.57;98162.78;4919704;29;20201;-88
2022/04/07 01:53:41;;;;;;;3.43;1.30;;;;;;;13.07;41.65;98163.53;4936349;29;20619;-87
2022/04/07 01:56:07;;;;;;;2.73;1.23;;;;;;;13.08;41.64;98157.31;4936655;29;20643;-89
2022/04/07 01:58:34;;;;;;;5.33;1.33;;;;;;;13.00;41.71;98146.53;4936266;29;20184;-89
2022/04/07 02:01:00;;;;;;;2.93;1.10;;;;;;;12.90;42.47;98152.50;4936600;29;20298;-90
2022/04/07 02:03:25;;;;;;;4.90;1.87;;;;;;;12.58;43.63;98146.25;4919493;29;20542;-88
2022/04/07 02:05:50;;;;;;;3.93;2.20;;;;;;;12.57;44.19;98149.84;4936229;29;20221;-89
2022/04/07 02:08:16;;;;;;;2.50;1.33;;;;;;;12.53;44.64;98144.91;4936206;29;20199;-89
2022/04/07 02:10:41;;;;;;;9.73;2.60;;;;;;;12.21;45.14;98142.13;4936701;29;20184;-90
2022/04/07 02:13:07;;;;;;;3.83;2.20;;;;;;;12.32;44.90;98128.97;4936108;29;20180;-89
2022/04/07 02:15:32;;;;;;;8.47;2.17;;;;;;;12.43;44.41;98129.00;4919706;29;20249;-86
2022/04/07 02:17:58;;;;;;;4.93;1.10;;;;;;;12.40;44.68;98126.63;4936624;29;20248;-88
2022/04/07 02:20:24;;;;;;;3.87;1.70;;;;;;;12.41;44.65;98112.53;4935939;29;20666;-89
2022/04/07 02:22:49;;;;;;;8.50;2.07;;;;;;;12.61;44.77;98124.13;4919175;29;20198;-89
2022/04/07 02:25:15;;;;;;;4.77;2.10;;;;;;;12.62;44.47;98110.88;4919264;29;20673;-88
2022/04/07 02:27:42;;;;;;;9.00;3.57;;;;;;;12.42;45.16;98113.38;4919205;29;20194;-89
2022/04/07 02:30:10;;;;;;;8.40;2.97;;;;;;;12.35;45.32;98113.00;4934174;29;20200;-89
2022/04/07 02:32:36;;;;;;;5.17;2.17;;;;;;;12.17;45.62;98104.72;4936448;29;20262;-88
2022/04/07 02:35:01;;;;;;;16.87;2.17;;;;;;;11.64;46.89;98097.31;4934949;29;20641;-89
2022/04/07 02:37:27;;;;;;;6.87;2.30;;;;;;;11.78;47.02;98098.97;4919117;29;20564;-89
2022/04/07 02:39:53;;;;;;;4.10;1.60;;;;;;;11.90;47.09;98096.25;4935753;29;20268;-90
2022/04/07 02:42:19;;;;;;;4.57;2.00;;;;;;;11.79;47.16;98084.91;4935830;29;20197;-89
2022/04/07 02:44:45;;;;;;;5.77;1.20;;;;;;;11.52;47.09;98074.59;4935819;29;20265;-89
2022/04/07 02:47:10;;;;;;;2.87;1.80;;;;;;;11.65;46.80;98070.97;4936267;29;20209;-89
2022/04/07 02:49:39;;;;;;;2.97;1.43;;;;;;;11.69;45.84;98059.31;4935717;29;20178;-89
2022/04/07 02:52:09;;;;;;;3.77;1.53;;;;;;;11.96;45.06;98053.81;4935707;29;20174;-88
2022/04/07 02:54:36;;;;;;;1.97;1.23;;;;;;;12.12;44.52;98054.31;4918783;29;20198;-88
2022/04/07 02:57:02;;;;;;;3.90;1.53;;;;;;;12.18;44.93;98045.13;4935862;29;20192;-88
2022/04/07 02:59:27;;;;;;;8.97;1.93;;;;;;;12.39;44.84;98040.03;4935537;29;20226;-89
2022/04/07 03:01:53;;;;;;;4.23;2.10;;;;;;;12.27;45.06;98041.78;4935619;29;20262;-89
2022/04/07 03:04:19;;;;;;;2.20;1.67;;;;;;;12.23;45.40;98043.84;4918849;29;20179;-88
2022/04/07 03:06:45;;;;;;;4.60;2.17;;;;;;;12.33;45.68;98033.44;4918839;29;20233;-88
2022/04/07 03:09:10;;;;;;;2.60;1.53;;;;;;;12.34;46.06;98027.25;4918804;29;20186;-89
2022/04/07 03:11:36;;;;;;;5.87;1.33;;;;;;;12.31;45.60;98040.63;4936055;29;20257;-89
2022/04/07 03:14:01;;;;;;;3.97;1.47;;;;;;;12.18;45.16;98042.50;4935533;29;20637;-88
2022/04/07 03:16:26;;;;;;;4.67;1.63;;;;;;;12.51;44.79;98039.06;4935491;29;20543;-88
2022/04/07 03:18:52;;;;;;;3.00;1.43;;;;;;;12.51;44.45;98036.44;4935403;29;20684;-88
2022/04/07 03:21:17;;;;;;;2.17;1.10;;;;;;;12.45;44.62;98029.06;4918696;29;20272;-88
2022/04/07 03:23:43;;;;;;;3.27;1.30;;;;;;;12.30;44.79;98031.91;4935680;29;20174;-88
2022/04/07 03:26:08;;;;;;;1.87;1.00;;;;;;;12.26;44.43;98025.19;4918649;29;20670;-88
2022/04/07 03:28:34;;;;;;;2.00;1.27;;;;;;;12.20;44.64;98032.72;4935853;29;20189;-88
2022/04/07 03:30:59;;;;;;;2.97;1.67;;;;;;;12.08;44.59;98021.34;4935604;29;20225;-88
2022/04/07 03:33:25;;;;;;;3.70;1.47;;;;;;;12.16;44.36;98028.63;4918507;29;20189;-88
2022/04/07 03:35:50;;;;;;;2.37;1.47;;;;;;;12.32;43.93;98022.09;4918575;29;20186;-88
2022/04/07 03:38:16;;;;;;;2.63;1.37;;;;;;;12.41;43.59;98017.09;4918598;29;20216;-90
2022/04/07 03:40:41;;;;;;;3.07;1.50;;;;;;;12.52;44.16;98023.19;4918456;29;20212;-87
2022/04/07 03:43:07;;;;;;;3.20;1.57;;;;;;;12.45;44.09;98013.28;4938280;29;20187;-88
2022/04/07 03:45:32;;;;;;;2.70;1.70;;;;;;;12.60;44.37;98007.66;4938728;29;20182;-88
2022/04/07 03:47:58;;;;;;;8.73;2.33;;;;;;;12.50;44.39;98011.94;4939221;29;20233;-87
2022/04/07 03:50:24;;;;;;;4.37;1.87;;;;;;;12.24;45.01;98005.25;4938923;29;20185;-88
2022/04/07 03:52:50;;;;;;;3.73;1.63;;;;;;;12.04;45.50;98008.56;4938923;29;20182;-88
2022/04/07 03:55:15;;;;;;;4.13;1.40;;;;;;;12.15;45.05;98011.22;4938499;29;20186;-89
2022/04/07 03:57:41;;;;;;;3.40;0.93;;;;;;;12.18;44.36;98024.97;4921736;29;20183;-88
2022/04/07 04:00:07;;;;;;;1.83;1.23;;;;;;;12.29;43.95;98018.84;4938972;29;20206;-88
2022/04/07 04:02:32;;;;;;;2.90;1.33;;;;;;;12.31;44.01;98006.47;4938419;29;20193;-87
2022/04/07 04:04:58;;;;;;;5.90;1.20;;;;;;;12.65;43.64;98004.66;4921665;29;20177;-87
2022/04/07 04:07:23;;;;;;;2.90;1.40;;;;;;;12.81;43.87;97998.03;4938426;29;20547;-88
2022/04/07 04:09:48;;;;;;;3.70;2.13;;;;;;;12.87;43.56;97997.56;4921603;29;20186;-89
2022/04/07 04:12:14;;;;;;;5.17;1.90;;;;;;;12.52;44.44;97980.31;4938544;29;20182;-88
2022/04/07 04:14:39;;;;;;;7.13;1.70;;;;;;;12.60;44.52;97978.75;4938289;29;20643;-88
2022/04/07 04:17:05;;;;;;;4.20;1.60;;;;;;;12.55;44.69;97978.25;4938181;29;20694;-87
2022/04/07 04:19:30;;;;;;;3.40;1.73;;;;;;;12.55;43.93;97973.00;4938934;29;20205;-88
2022/04/07 04:21:56;;;;;;;4.80;2.17;;;;;;;12.53;43.69;97977.53;4938224;29;20192;-88
2022/04/07 04:24:21;;;;;;;3.53;1.67;;;;;;;12.64;43.35;97967.03;4921276;29;20187;-88
2022/04/07 04:26:47;;;;;;;5.67;2.30;;;;;;;12.66;45.19;97967.72;4938320;29;20182;-87
2022/04/07 04:29:12;;;;;;;3.93;1.90;;;;;;;12.80;45.08;97958.75;4938274;29;20306;-88
2022/04/07 04:31:38;;;;;;;3.30;1.37;;;;;;;12.58;45.52;97961.44;4937936;29;20182;-88
2022/04/07 04:34:03;;;;;;;8.07;1.90;;;;;;;12.61;46.22;97954.13;4938169;29;20218;-87
2022/04/07 04:36:29;;;;;;;10.17;2.50;;;;;;;12.79;45.58;97957.91;4937879;29;20179;-87
2022/04/07 04:38:54;;;;;;;6.67;2.30;;;;;;;12.69;48.40;97954.34;4920948;29;20674;-88
2022/04/07 04:41:20;;;;;;;4.20;2.17;;;;;;;12.76;48.88;97950.25;4937769;29;20240;-88
2022/04/07 04:43:45;;;;;;;4.23;1.37;;;;;;;12.71;48.86;97956.88;4921233;29;20197;-87
2022/04/07 04:46:12;;;;;;;4.83;1.90;;;;;;;12.65;49.87;97959.97;4920898;29;20179;-87
2022/04/07 04:48:38;;;;;;;2.60;1.63;;;;;;;12.68;50.04;97965.81;4938045;29;20229;-87
2022/04/07 04:51:06;;;;;;;5.33;2.13;;;;;;;12.41;50.22;97948.75;4937584;29;20190;-87
2022/04/07 04:53:32;;;;;;;13.20;2.53;;;;;;;12.13;51.73;97944.84;4936742;29;20651;-88
2022/04/07 04:55:57;;;;;;;5.13;2.80;;;;;;;12.31;52.68;97938.16;4937407;29;20703;-87
2022/04/07 04:58:23;;;;;;;4.30;2.37;;;;;;;12.02;52.29;97947.47;4921012;29;20182;-88
2022/04/07 05:00:49;;;;;;;5.33;3.30;;;;;;;12.26;51.18;97933.25;4937364;29;20202;-87
2022/04/07 05:03:14;;;;;;;3.73;2.27;;;;;;;12.24;51.09;97927.28;4937330;29;20182;-87
2022/04/07 05:05:40;;;;;;;3.90;1.90;;;;;;;12.44;47.42;97932.75;4920537;29;20663;-87
2022/04/07 05:08:06;;;;;;;9.23;2.53;;;;;;;12.56;48.47;97926.53;4920518;29;20186;-89
2022/04/07 05:10:32;;;;;;;5.30;2.10;;;;;;;12.60;48.65;97913.03;4920421;29;20666;-88
2022/04/07 05:12:58;;;;;;;4.80;2.13;;;;;;;12.96;47.63;97922.38;4937176;29;20237;-87
2022/04/07 05:15:24;;;;;;;7.53;3.47;;;;;;;13.12;47.96;97932.50;4937168;29;20630;-88
2022/04/07 05:17:53;;;;;;;5.53;2.50;;;;;;;13.30;47.76;97925.72;4937347;29;20538;-87
2022/04/07 05:20:19;;;;;;;7.00;3.23;;;;;;;13.54;47.91;97921.06;4920999;29;20580;-87
2022/04/07 05:22:45;;;;;;;8.07;3.70;;;;;;;13.45;46.98;97925.28;4937026;29;20534;-87
2022/04/07 05:25:11;;;;;;;9.53;4.17;;;;;;;13.67;46.50;97916.44;4920221;29;20685;-87
2022/04/07 05:27:37;;;;;;;9.17;4.17;;;;;;;13.87;46.87;97912.94;4936914;29;20587;-86
2022/04/07 05:30:08;;;;;;;8.73;4.10;;;;;;;14.03;45.75;97908.03;4920154;29;20184;-86
2022/04/07 05:32:34;;;;;;;9.97;4.77;;;;;;;13.78;46.90;97919.00;4937173;29;20527;-87
2022/04/07 05:35:00;;;;;;;21.63;6.87;;;;;;;13.54;47.62;97924.53;4936815;29;20185;-87
2022/04/07 05:37:25;;;;;;;10.97;4.10;;;;;;;13.77;47.56;97916.47;4920018;29;20188;-87
2022/04/07 05:39:54;;;;;;;9.43;4.03;;;;;;;14.11;47.30;97905.56;4919910;29;20654;-88
2022/04/07 05:42:19;;;;;;;12.10;4.73;;;;;;;14.20;47.28;97896.03;4936935;29;20264;-87
2022/04/07 05:44:45;;;;;;;22.50;6.97;;;;;;;14.64;46.95;97886.88;4936665;29;20624;-87
2022/04/07 05:47:10;;;;;;;11.80;4.20;;;;;;;15.02;46.32;97878.16;4936899;29;20185;-87
2022/04/07 05:49:36;;;;;;;14.00;5.90;;;;;;;15.35;45.37;97877.75;4919760;29;20614;-87
2022/04/07 05:52:04;;;;;;;12.73;4.33;;;;;;;15.32;44.83;97868.31;4919793;29;20216;-89
2022/04/07 05:54:33;;;;;;;13.73;4.70;;;;;;;15.35;44.71;97852.19;4936315;29;20642;-88
2022/04/07 05:56:58;;;;;;;12.03;4.30;;;;;;;14.64;44.47;97860.50;4936417;29;20187;-88
2022/04/07 05:59:24;;;;;;;7.90;3.70;;;;;;;14.78;45.44;97852.19;4939063;29;20205;-87
2022/04/07 06:01:50;;;;;;;9.93;3.97;;;;;;;14.70;45.19;97849.44;4935303;29;20189;-88
2022/04/07 06:04:15;;;;;;;9.70;4.00;;;;;;;14.50;45.27;97848.56;4938447;28;20177;-89
2022/04/07 06:06:41;;;;;;;4.07;2.00;;;;;;;14.60;44.33;97848.56;4938480;29;20209;-88
2022/04/07 06:09:06;;;;;;;4.77;2.17;;;;;;;14.99;44.17;97836.25;4938487;29;20189;-89
2022/04/07 06:11:32;;;;;;;4.60;2.53;;;;;;;15.04;43.68;97836.66;4955356;29;20563;-89
2022/04/07 06:13:57;;;;;;;6.53;2.73;;;;;;;15.30;43.19;97827.19;4938410;29;20633;-88
2022/04/07 06:16:23;;;;;;;11.80;3.20;;;;;;;15.41;42.27;97820.91;4955244;29;20178;-88
2022/04/07 06:18:48;;;;;;;3.50;1.93;;;;;;;15.14;41.92;97825.13;4938555;29;20549;-89
2022/04/07 06:21:14;;;;;;;8.47;3.07;;;;;;;15.44;41.67;97820.59;4955216;29;20186;-88
2022/04/07 06:23:40;;;;;;;7.00;2.73;;;;;;;15.49;40.70;97819.22;4938258;29;20555;-88
2022/04/07 06:26:06;;;;;;;4.53;2.27;;;;;;;15.33;40.98;97821.59;4955141;29;20187;-88
2022/04/07 06:28:32;;;;;;;7.67;2.27;;;;;;;15.37;41.13;97807.97;4938182;29;20179;-89
2022/04/07 06:30:57;;;;;;;3.43;1.60;;;;;;;15.39;41.29;97799.91;4938489;29;20512;-88
2022/04/07 06:33:23;;;;;;;6.83;2.77;;;;;;;15.38;41.18;97808.81;4955080;29;20181;-89
2022/04/07 06:35:52;;;;;;;4.37;2.33;;;;;;;15.39;40.89;97806.03;4938086;29;20183;-89
2022/04/07 06:38:18;;;;;;;7.53;2.87;;;;;;;15.54;40.81;97793.22;4955253;29;20272;-88
2022/04/07 06:40:44;;;;;;;3.63;2.07;;;;;;;15.91;41.32;97796.69;4954946;29;20213;-89
2022/04/07 06:43:10;;;;;;;9.60;2.60;;;;;;;16.30;40.11;97794.66;4955526;29;20178;-89
2022/04/07 06:45:36;;;;;;;5.70;2.70;;;;;;;16.04;40.70;97791.06;4938369;29;20199;-89
2022/04/07 06:48:01;;;;;;;10.17;2.90;;;;;;;16.21;40.24;97792.09;4938322;29;20691;-89
2022/04/07 06:50:26;;;;;;;5.00;3.03;;;;;;;16.52;41.04;97780.19;4955179;29;20200;-89
2022/04/07 06:52:53;;;;;;;9.07;3.33;;;;;;;17.06;40.30;97777.38;4939086;29;20231;-90
2022/04/07 06:55:19;;;;;;;7.00;3.87;;;;;;;16.86;40.40;97770.59;4937827;29;20201;-89
2022/04/07 06:57:48;;;;;;;8.27;3.83;;;;;;;16.84;40.46;97764.66;4937874;29;20284;-89
2022/04/07 07:00:14;;;;;;;8.17;3.50;;;;;;;16.87;40.85;97759.06;4954724;29;20207;-89
2022/04/07 07:02:40;;;;;;;15.07;4.70;;;;;;;17.20;41.05;97746.88;4938191;29;20640;-89
2022/04/07 07:05:06;;;;;;;12.10;4.20;;;;;;;17.09;40.18;97758.53;4937798;29;20187;-88
2022/04/07 07:07:31;;;;;;;9.00;3.53;;;;;;;17.22;39.87;97741.44;4937809;29;20602;-89
2022/04/07 07:09:57;;;;;;;9.30;4.07;;;;;;;16.94;39.04;97738.09;4954734;29;20181;-89
2022/04/07 07:12:22;;;;;;;13.87;3.80;;;;;;;16.83;39.29;97740.97;4954921;29;20259;-90
2022/04/07 07:14:48;;;;;;;6.63;3.00;;;;;;;16.72;40.10;97746.53;4938205;29;20181;-89
2022/04/07 07:17:13;;;;;;;7.17;3.63;;;;;;;16.74;40.94;97736.59;4940429;29;20184;-89
2022/04/07 07:19:39;;;;;;;10.23;4.27;;;;;;;16.82;41.29;97741.97;4941388;29;20664;-90
2022/04/07 07:22:04;;;;;;;16.30;5.07;;;;;;;16.54;42.00;97717.41;4958920;29;20251;-89
2022/04/07 07:24:30;;;;;;;25.43;5.50;;;;;;;16.48;42.04;97713.53;4958595;29;20195;-88
2022/04/07 07:26:55;;;;;;;9.10;4.77;;;;;;;16.44;41.36;97712.19;4941602;29;20185;-89
2022/04/07 07:29:21;;;;;;;10.97;4.67;;;;;;;16.42;42.08;97705.38;4941293;29;20185;-91
2022/04/07 07:31:46;;;;;;;9.60;4.23;;;;;;;16.68;41.50;97716.03;4941521;29;20651;-89
2022/04/07 07:34:12;;;;;;;9.13;4.77;;;;;;;16.52;41.78;97714.94;4941231;29;20181;-89
2022/04/07 07:36:38;;;;;;;11.10;4.57;;;;;;;16.74;41.01;97715.44;4953911;29;20267;-91
2022/04/07 07:39:07;;;;;;;7.80;3.93;;;;;;;16.68;41.03;97710.75;4916942;28;20215;-90
2022/04/07 07:41:36;;;;;;;9.47;4.37;;;;;;;16.63;41.34;97707.75;4959350;28;20196;-90
2022/04/07 07:44:05;;;;;;;11.47;5.13;;;;;;;16.61;41.27;97684.09;4942779;29;20188;-90
2022/04/07 07:46:33;;;;;;;11.40;3.97;;;;;;;16.20;42.04;97685.50;4921985;29;20268;-92
2022/04/07 07:49:01;;;;;;;9.33;4.17;;;;;;;15.99;42.10;97688.44;4946613;29;20177;-89
2022/04/07 07:51:27;;;;;;;16.17;4.40;;;;;;;16.09;41.80;97671.69;4933843;29;20636;-91
2022/04/07 07:53:54;;;;;;;7.70;3.67;;;;;;;16.28;42.02;97676.81;4950418;28;20195;-88
2022/04/07 07:56:20;;;;;;;6.63;3.73;;;;;;;16.39;41.12;97671.31;4927094;29;20694;-89
2022/04/07 07:58:47;;;;;;;5.63;2.50;;;;;;;16.71;39.75;97660.19;4956345;29;20192;-90
2022/04/07 08:01:13;;;;;;;3.60;1.53;;;;;;;17.06;37.90;97646.81;4955367;29;20639;-89
2022/04/07 08:03:39;;;;;;;2.10;1.13;;;;;;;17.49;37.61;97638.78;4932535;29;20275;-90
2022/04/07 08:06:05;;;;;;;2.30;1.20;;;;;;;18.04;36.60;97627.66;4925975;29;20178;-88
2022/04/07 08:08:31;;;;;;;2.23;1.40;;;;;;;18.66;35.15;97620.91;4948248;29;20185;-87
2022/04/07 08:10:58;;;;;;;4.23;1.40;;;;;;;19.17;35.21;97606.34;4943475;29;20249;-89
2022/04/07 08:13:25;;;;;;;3.87;1.23;;;;;;;19.51;33.12;97593.63;4948604;29;20183;-91
2022/04/07 08:15:52;;;;;;;3.50;1.47;;;;;;;19.69;32.85;97596.84;4957050;29;20955;-91
2022/04/07 08:18:18;;;;;;;3.23;1.33;;;;;;;19.79;33.18;97586.81;4957060;29;20201;-89
2022/04/07 08:20:45;;;;;;;3.17;1.27;;;;;;;19.69;31.92;97580.91;4956908;29;20758;-91
2022/04/07 08:23:16;;;;;;;5.40;1.87;;;;;;;19.65;33.03;97582.25;4956998;29;20183;-91
2022/04/07 08:25:43;;;;;;;7.17;1.23;;;;;;;19.61;31.98;97580.94;4957131;29;20184;-90
2022/04/07 08:28:13;;;;;;;2.93;1.40;;;;;;;19.57;31.79;97569.81;4938949;29;20243;-90
2022/04/07 08:30:42;;;;;;;4.73;1.30;;;;;;;19.72;33.33;97563.78;4947811;29;20197;-90
2022/04/07 08:33:08;;;;;;;2.17;0.90;;;;;;;19.85;32.49;97564.84;4953043;29;20216;-89
2022/04/07 08:35:35;;;;;;;4.07;1.87;;;;;;;19.90;33.33;97545.69;4929775;29;20181;-90
2022/04/07 08:38:05;;;;;;;4.13;1.50;;;;;;;20.13;32.78;97542.00;4953727;29;20681;-93
2022/04/07 08:40:35;;;;;;;3.60;1.73;;;;;;;20.03;33.49;97540.59;4929521;29;20708;-89
2022/04/07 08:43:01;;;;;;;5.27;1.90;;;;;;;20.30;32.48;97528.59;4938160;29;20185;-89
2022/04/07 08:45:29;;;;;;;7.83;2.87;;;;;;;20.53;33.13;97522.22;4954815;29;20179;-89
2022/04/07 08:47:57;;;;;;;6.73;1.70;;;;;;;20.70;31.45;97522.88;4947309;29;20185;-90
2022/04/07 08:50:26;;;;;;;4.50;2.00;;;;;;;20.59;31.84;97516.19;4949055;29;20182;-91
2022/04/07 08:52:53;;;;;;;14.00;2.63;;;;;;;20.86;31.70;97512.03;4939564;29;20208;-89
2022/04/07 08:55:20;;;;;;;2.43;1.50;;;;;;;20.87;32.21;97497.72;4939776;29;20233;-93
2022/04/07 08:57:46;;;;;;;4.03;1.83;;;;;;;20.96;31.62;97483.31;4953602;29;20641;-90
2022/04/07 09:00:13;;;;;;;3.17;1.30;;;;;;;21.03;30.37;97478.88;4954088;29;20216;-89
2022/04/07 09:02:40;;;;;;;3.77;1.87;;;;;;;20.96;31.00;97483.31;4935611;29;20561;-89
2022/04/07 09:05:30;;;;;;;4.73;1.60;;;;;;;20.88;31.47;97475.41;4939457;29;20189;-90
2022/04/07 09:08:00;;;;;;;2.43;0.80;;;;;;;20.64;30.10;97473.84;4937632;29;20197;-92
2022/04/07 09:10:29;;;;;;;5.87;2.33;;;;;;;20.69;31.52;97478.63;4945074;29;20231;-93
2022/04/07 09:13:04;;;;;;;4.47;0.90;;;;;;;20.81;30.93;97477.97;4944344;29;20201;-90
2022/04/07 09:15:31;;;;;;;11.83;1.33;;;;;;;20.87;31.48;97471.09;4934568;29;20189;-88
2022/04/07 09:18:00;;;;;;;8.53;2.00;;;;;;;20.87;31.24;97459.59;4937441;29;20291;-89
2022/04/07 09:20:27;;;;;;;5.77;1.27;;;;;;;20.84;31.25;97463.47;4939165;29;20193;-88
2022/04/07 09:23:00;;;;;;;13.43;2.27;;;;;;;20.77;31.61;97443.91;4938623;29;20554;-89
2022/04/07 09:25:27;;;;;;;11.10;1.57;;;;;;;20.88;31.80;97446.13;4947560;29;20185;-89
2022/04/07 09:27:57;;;;;;;5.50;1.57;;;;;;;20.81;31.46;97439.84;4941599;29;20181;-88
2022/04/07 09:30:25;;;;;;;3.80;1.10;;;;;;;20.84;31.50;97440.31;4943164;29;20178;-90
2022/04/07 09:32:52;;;;;;;6.73;1.17;;;;;;;21.06;31.22;97422.59;4920574;29;20200;-89
2022/04/07 09:35:19;;;;;;;10.77;2.13;;;;;;;21.04;31.12;97423.75;4943614;29;20629;-89
2022/04/07 09:37:46;;;;;;;7.17;1.93;;;;;;;21.23;31.36;97413.34;4937958;29;20221;-89
2022/04/07 09:40:17;;;;;;;6.10;1.60;;;;;;;21.49;31.43;97411.97;4953004;28;20205;-92
2022/04/07 09:42:44;;;;;;;2.80;1.00;;;;;;;21.44;30.48;97410.69;4955851;29;20169;-87
2022/04/07 09:45:12;;;;;;;7.80;1.80;;;;;;;21.48;30.72;97399.66;4955657;29;20199;-90
2022/04/07 09:47:46;;;;;;;4.53;1.43;;;;;;;21.30;30.44;97398.22;4949162;29;20220;-89
2022/04/07 09:50:31;;;;;;;7.53;2.07;;;;;;;21.15;30.26;97386.81;4936561;29;20170;-91
2022/04/07 09:53:05;;;;;;;7.57;1.70;;;;;;;21.42;30.49;97380.72;4941242;29;20177;-93
2022/04/07 09:55:43;;;;;;;5.23;1.40;;;;;;;21.56;31.08;97370.19;4947309;29;20235;-91
2022/04/07 09:58:12;;;;;;;6.10;3.00;;;;;;;21.95;32.82;97367.84;4950798;29;20170;-88
2022/04/07 10:00:40;;;;;;;8.30;3.00;;;;;;;22.00;33.48;97360.94;4937214;29;20685;-89
2022/04/07 10:03:10;;;;;;;8.40;3.53;;;;;;;22.01;33.73;97361.75;4922684;29;20208;-89
2022/04/07 10:05:37;;;;;;;7.77;2.90;;;;;;;22.17;32.71;97353.41;4930111;29;20749;-89
2022/04/07 10:08:06;;;;;;;3.93;2.47;;;;;;;21.83;32.09;97356.03;4953459;29;20244;-91
2022/04/07 10:10:34;;;;;;;9.13;3.50;;;;;;;21.95;33.40;97365.19;4954757;29;20181;-90
2022/04/07 10:13:01;;;;;;;7.83;3.60;;;;;;;21.96;34.25;97358.81;4953312;29;20193;-88
2022/04/07 10:15:28;;;;;;;9.30;4.47;;;;;;;21.80;34.40;97361.78;4944781;28;20184;-89
2022/04/07 10:17:58;;;;;;;13.63;4.57;;;;;;;21.47;34.91;97358.81;4950056;28;20204;-89
2022/04/07 10:20:33;;;;;;;11.77;4.67;;;;;;;21.32;35.37;97352.75;4943703;29;20269;-88
2022/04/07 10:23:25;;;;;;;12.00;5.07;;;;;;;21.49;35.33;97345.31;4933781;29;20601;-87
2022/04/07 10:25:54;;;;;;;10.07;4.10;;;;;;;21.50;35.28;97341.63;4924991;29;20190;-88
2022/04/07 10:28:24;;;;;;;8.80;4.00;;;;;;;21.10;35.32;97335.94;4954615;28;20172;-88
2022/04/07 10:30:55;;;;;;;10.53;3.87;;;;;;;21.11;35.26;97329.59;4912050;29;20285;-87
2022/04/07 10:33:47;;;;;;;8.70;4.40;;;;;;;21.12;35.45;97317.13;4948162;29;20612;-87
2022/04/07 10:36:22;;;;;;;10.90;4.07;;;;;;;21.14;35.65;97323.06;4954935;29;20158;-87
2022/04/07 10:38:51;;;;;;;7.03;3.63;;;;;;;21.00;34.94;97318.59;4925134;29;20204;-86
2022/04/07 10:41:39;;;;;;;8.30;3.07;;;;;;;21.14;35.20;97331.91;4919205;29;20645;-88
2022/04/07 10:44:15;;;;;;;12.97;4.00;;;;;;;21.01;35.36;97318.41;4935814;29;20186;-87
2022/04/07 10:46:42;;;;;;;13.70;4.30;;;;;;;21.03;35.59;97326.19;4935991;29;20166;-87
2022/04/07 10:49:10;;;;;;;10.20;3.80;;;;;;;21.04;36.11;97323.34;4935640;29;20199;-88
2022/04/07 10:51:49;;;;;;;8.87;4.03;;;;;;;20.75;35.96;97307.50;4954526;28;20232;-88
2022/04/07 10:54:16;;;;;;;6.47;3.33;;;;;;;20.46;35.85;97302.25;4939515;29;20281;-86
2022/04/07 10:56:50;;;;;;;9.83;4.00;;;;;;;20.56;35.79;97297.44;4951472;29;20240;-87
2022/04/07 10:59:32;;;;;;;6.17;2.70;;;;;;;20.61;36.23;97292.38;4954633;28;20220;-87
2022/04/07 11:02:15;;;;;;;18.90;4.07;;;;;;;20.10;36.85;97289.69;4924916;29;20551;-87
2022/04/07 11:05:10;;;;;;;6.20;3.50;;;;;;;19.83;37.84;97285.03;4933591;28;20176;-88
2022/04/07 11:07:51;;;;;;;7.00;3.40;;;;;;;19.65;38.27;97287.22;4954491;28;20176;-88
2022/04/07 11:10:39;;;;;;;6.80;2.83;;;;;;;19.45;38.21;97286.91;4949694;28;20181;-89
2022/04/07 11:13:06;;;;;;;7.73;3.40;;;;;;;19.35;38.72;97291.63;4938909;29;20212;-87
2022/04/07 11:15:49;;;;;;;6.73;3.10;;;;;;;19.44;38.86;97289.75;4954740;29;20192;-90
2022/04/07 11:18:25;;;;;;;7.03;3.60;;;;;;;19.41;39.16;97290.94;4926738;29;20191;-88
2022/04/07 11:21:10;;;;;;;7.20;3.07;;;;;;;19.03;39.80;97276.78;4940781;29;20561;-90
2022/04/07 11:23:56;;;;;;;8.30;3.60;;;;;;;18.74;40.33;97292.59;4953481;29;20188;-88
2022/04/07 11:26:27;;;;;;;10.33;2.80;;;;;;;18.75;40.22;97298.75;4953787;29;20287;-91
2022/04/07 11:29:10;;;;;;;5.50;2.87;;;;;;;18.65;39.85;97316.72;4955878;29;20212;-88
2022/04/07 11:31:41;;;;;;;11.93;3.53;;;;;;;18.68;39.55;97309.25;4939113;29;20177;-88
2022/04/07 11:34:45;;;;;;;5.00;2.37;;;;;;;18.96;39.31;97301.59;4955255;29;20184;-87